createdAt,value
2018-09-02T00:00:09.437Z,3.10
2018-09-02T00:02:41.731Z,3.80
2018-09-02T00:05:13.949Z,3.90
2018-09-02T00:07:46.215Z,4.10
2018-09-02T00:10:18.371Z,3.70
2018-09-02T00:12:50.687Z,3.90
2018-09-02T00:15:22.982Z,3.70
2018-09-02T00:17:55.253Z,3.90
2018-09-02T00:20:27.383Z,3.80
2018-09-02T00:23:00.810Z,3.80
2018-09-02T00:25:33.448Z,4.60
2018-09-02T00:28:06.128Z,4.10
2018-09-02T00:30:38.676Z,4.30
2018-09-02T00:33:10.886Z,4.60
2018-09-02T00:35:43.193Z,4.40
2018-09-02T00:38:15.867Z,4.70
2018-09-02T00:40:48.399Z,4.30
2018-09-02T00:43:20.519Z,4.60
2018-09-02T00:45:52.955Z,4.20
2018-09-02T00:48:25.134Z,4.50
2018-09-02T00:50:57.760Z,4.10
2018-09-02T00:53:30.290Z,4.60
2018-09-02T00:56:02.661Z,3.70
2018-09-02T00:58:35.073Z,4.60
2018-09-02T01:01:07.949Z,4.40
2018-09-02T01:03:40.159Z,3.40
2018-09-02T01:06:12.853Z,4.20
2018-09-02T01:08:45.327Z,4.70
2018-09-02T01:11:17.536Z,4.50
2018-09-02T01:13:49.870Z,4.70
2018-09-02T01:16:22.402Z,3.90
2018-09-02T01:18:54.579Z,4.60
2018-09-02T01:21:27.218Z,4.40
2018-09-02T01:23:59.832Z,4.40
2018-09-02T01:26:32.167Z,4.50
2018-09-02T01:29:04.337Z,4.60
2018-09-02T01:31:37.048Z,5.00
2018-09-02T01:34:09.300Z,4.90
2018-09-02T01:36:41.866Z,4.90
2018-09-02T01:39:14.256Z,5.60
2018-09-02T01:41:46.814Z,6.20
2018-09-02T01:44:19.630Z,5.40
2018-09-02T01:46:51.845Z,5.80
2018-09-02T01:49:24.349Z,5.70
2018-09-02T01:51:56.849Z,5.90
2018-09-02T01:54:29.638Z,6.00
2018-09-02T01:57:01.791Z,6.10
2018-09-02T01:59:34.190Z,6.10
2018-09-02T02:02:06.686Z,6.80
2018-09-02T02:04:43.804Z,6.80
2018-09-02T02:07:16.385Z,7.00
2018-09-02T02:09:48.675Z,7.40
2018-09-02T02:12:21.238Z,7.40
2018-09-02T02:14:53.575Z,7.60
2018-09-02T02:17:26.229Z,8.10
2018-09-02T02:19:59.132Z,8.20
2018-09-02T02:22:31.425Z,8.60
2018-09-02T02:25:03.826Z,8.70
2018-09-02T02:27:36.326Z,9.00
2018-09-02T02:30:09.021Z,9.40
2018-09-02T02:32:41.264Z,9.60
2018-09-02T02:35:13.628Z,10.00
2018-09-02T02:37:46.144Z,10.50
2018-09-02T02:40:18.611Z,10.50
2018-09-02T02:42:50.873Z,11.00
2018-09-02T02:45:24.608Z,11.10
2018-09-02T02:47:57.081Z,11.40
2018-09-02T02:50:29.395Z,11.70
2018-09-02T02:53:06.616Z,11.80
2018-09-02T02:55:38.860Z,12.30
2018-09-02T02:58:11.300Z,12.80
2018-09-02T03:00:44.000Z,12.90
2018-09-02T03:03:16.484Z,13.40
2018-09-02T03:05:48.883Z,14.20
2018-09-02T03:08:21.251Z,14.00
2018-09-02T03:10:53.410Z,14.50
2018-09-02T03:13:25.860Z,14.40
2018-09-02T03:15:58.006Z,14.70
2018-09-02T03:18:30.252Z,15.30
2018-09-02T03:21:02.396Z,15.70
2018-09-02T03:23:34.560Z,15.70
2018-09-02T03:26:07.236Z,15.90
2018-09-02T03:28:39.676Z,16.90
2018-09-02T03:31:12.570Z,17.20
2018-09-02T03:33:45.673Z,17.50
2018-09-02T03:36:18.102Z,17.50
2018-09-02T03:38:50.198Z,17.90
2018-09-02T03:41:22.882Z,18.60
2018-09-02T03:43:55.461Z,19.50
2018-09-02T03:46:27.589Z,19.80
2018-09-02T03:49:00.068Z,20.30
2018-09-02T03:51:32.128Z,20.60
2018-09-02T03:54:04.249Z,20.70
2018-09-02T03:56:36.526Z,20.90
2018-09-02T03:59:08.893Z,20.90
2018-09-02T04:01:41.047Z,21.20
2018-09-02T04:04:13.132Z,21.50
2018-09-02T04:06:46.906Z,21.40
2018-09-02T04:09:19.063Z,21.60
2018-09-02T04:11:51.072Z,22.00
2018-09-02T04:14:23.146Z,21.90
2018-09-02T04:16:55.252Z,22.50
2018-09-02T04:19:27.262Z,22.80
2018-09-02T04:21:59.175Z,23.10
2018-09-02T04:24:31.166Z,23.30
2018-09-02T04:27:03.176Z,23.60
2018-09-02T04:29:35.062Z,23.70
2018-09-02T04:32:07.684Z,23.80
2018-09-02T04:34:39.539Z,24.10
2018-09-02T04:37:11.324Z,24.00
2018-09-02T04:39:43.362Z,24.00
2018-09-02T04:42:15.538Z,23.60
2018-09-02T04:44:48.097Z,23.90
2018-09-02T04:47:20.532Z,23.80
2018-09-02T04:49:52.904Z,24.00
2018-09-02T04:52:25.051Z,24.00
2018-09-02T04:54:56.924Z,24.00
2018-09-02T04:57:28.586Z,24.40
2018-09-02T05:00:00.429Z,24.60
2018-09-02T05:02:32.327Z,24.60
2018-09-02T05:05:04.875Z,24.50
2018-09-02T05:07:37.447Z,24.60
2018-09-02T05:10:09.793Z,25.00
2018-09-02T05:12:42.101Z,25.30
2018-09-02T05:15:14.082Z,25.40
2018-09-02T05:17:46.268Z,25.50
2018-09-02T05:20:17.983Z,25.30
2018-09-02T05:22:50.205Z,25.20
2018-09-02T05:25:22.517Z,25.10
2018-09-02T05:27:55.354Z,25.20
2018-09-02T05:30:28.494Z,25.00
2018-09-02T05:33:01.064Z,25.20
2018-09-02T05:35:33.508Z,25.10
2018-09-02T05:38:06.816Z,25.00
2018-09-02T05:40:39.163Z,25.30
2018-09-02T05:43:11.214Z,25.40
2018-09-02T05:45:43.642Z,25.40
2018-09-02T05:48:16.033Z,25.70
2018-09-02T05:50:48.639Z,25.60
2018-09-02T05:53:20.858Z,25.50
2018-09-02T05:55:52.942Z,25.90
2018-09-02T05:58:25.932Z,26.00
2018-09-02T06:00:58.319Z,25.60
2018-09-02T06:03:30.440Z,25.50
2018-09-02T06:06:02.913Z,25.80
2018-09-02T06:08:35.015Z,25.70
2018-09-02T06:11:06.964Z,25.50
2018-09-02T06:13:39.133Z,25.50
2018-09-02T06:16:11.080Z,25.10
2018-09-02T06:18:43.092Z,25.20
2018-09-02T06:21:15.236Z,25.20
2018-09-02T06:23:47.340Z,25.00
2018-09-02T06:26:19.339Z,25.30
2018-09-02T06:28:51.521Z,25.10
2018-09-02T06:31:23.583Z,25.10
2018-09-02T06:33:55.416Z,25.00
2018-09-02T06:36:27.259Z,25.00
2018-09-02T06:38:59.070Z,24.70
2018-09-02T06:41:30.998Z,24.70
2018-09-02T06:44:02.676Z,24.50
2018-09-02T06:46:34.677Z,24.60
2018-09-02T06:49:06.763Z,24.40
2018-09-02T06:51:38.614Z,24.30
2018-09-02T06:54:10.401Z,24.30
2018-09-02T06:56:42.638Z,24.20
2018-09-02T06:59:14.474Z,24.40
2018-09-02T07:01:46.199Z,24.60
2018-09-02T07:04:18.064Z,24.90
2018-09-02T07:06:50.651Z,25.20
2018-09-02T07:09:22.634Z,25.50
2018-09-02T07:11:54.326Z,26.10
2018-09-02T07:14:26.430Z,26.40
2018-09-02T07:16:58.606Z,26.60
2018-09-02T07:19:30.857Z,26.90
2018-09-02T07:22:02.655Z,27.00
2018-09-02T07:27:00.318Z,27.20
2018-09-02T07:29:32.069Z,27.30
2018-09-02T07:32:03.776Z,27.20
2018-09-02T07:34:35.688Z,27.50
2018-09-02T07:37:07.438Z,27.60
2018-09-02T07:39:39.492Z,27.90
2018-09-02T07:42:11.248Z,28.30
2018-09-02T07:44:43.270Z,28.50
2018-09-02T07:47:15.947Z,28.40
2018-09-02T07:49:47.947Z,28.60
2018-09-02T07:52:20.172Z,28.60
2018-09-02T07:54:51.944Z,29.00
2018-09-02T07:57:24.307Z,29.00
2018-09-02T07:59:56.265Z,29.10
2018-09-02T08:02:28.131Z,29.40
2018-09-02T08:05:00.278Z,29.40
2018-09-02T08:07:32.487Z,29.80
2018-09-02T08:10:04.571Z,29.90
2018-09-02T08:12:36.619Z,29.90
2018-09-02T08:15:08.825Z,30.30
2018-09-02T08:17:40.750Z,30.50
2018-09-02T08:20:12.985Z,30.50
2018-09-02T08:22:45.185Z,30.40
2018-09-02T08:25:16.946Z,30.90
2018-09-02T08:27:50.246Z,31.10
2018-09-02T08:30:22.289Z,31.70
2018-09-02T08:32:54.655Z,31.50
2018-09-02T08:35:26.598Z,31.80
2018-09-02T08:37:58.344Z,31.80
2018-09-02T08:40:30.129Z,32.50
2018-09-02T08:43:01.839Z,32.60
2018-09-02T08:45:33.578Z,33.50
2018-09-02T08:48:05.470Z,33.70
2018-09-02T08:50:37.709Z,33.90
2018-09-02T08:53:09.475Z,34.40
2018-09-02T08:55:41.211Z,34.50
2018-09-02T08:58:12.934Z,34.20
2018-09-02T09:00:44.889Z,34.70
2018-09-02T09:03:17.207Z,35.00
2018-09-02T09:05:49.774Z,35.80
2018-09-02T09:08:21.726Z,35.80
2018-09-02T09:10:54.900Z,35.70
2018-09-02T09:13:26.617Z,35.80
2018-09-02T09:15:58.421Z,36.40
2018-09-02T09:18:30.131Z,37.10
2018-09-02T09:21:01.874Z,37.40
2018-09-02T09:23:33.674Z,37.30
2018-09-02T09:26:05.489Z,37.50
2018-09-02T09:28:37.280Z,37.70
2018-09-02T09:31:09.798Z,37.80
2018-09-02T09:33:41.586Z,37.50
2018-09-02T09:36:13.681Z,37.50
2018-09-02T09:38:45.743Z,37.40
2018-09-02T09:41:17.877Z,38.30
2018-09-02T09:43:50.035Z,38.10
2018-09-02T09:46:22.615Z,38.30
2018-09-02T09:48:54.930Z,38.80
2018-09-02T09:51:27.358Z,38.70
2018-09-02T09:53:59.549Z,39.70
2018-09-02T09:56:31.696Z,39.90
2018-09-02T09:59:03.947Z,39.80
2018-09-02T10:01:36.063Z,40.40
2018-09-02T10:04:08.495Z,40.20
2018-09-02T10:06:40.587Z,40.00
2018-09-02T10:09:16.684Z,40.20
2018-09-02T10:11:48.770Z,40.50
2018-09-02T10:14:20.990Z,41.30
2018-09-02T10:16:53.220Z,40.80
2018-09-02T10:19:25.593Z,41.50
2018-09-02T10:21:57.928Z,41.50
2018-09-02T10:24:30.277Z,41.10
2018-09-02T10:27:02.533Z,42.10
2018-09-02T10:29:35.051Z,42.30
2018-09-02T10:32:07.738Z,42.40
2018-09-02T10:34:40.001Z,43.10
2018-09-02T10:37:12.292Z,43.20
2018-09-02T10:39:44.286Z,43.00
2018-09-02T10:42:16.750Z,43.00
2018-09-02T10:44:49.348Z,43.00
2018-09-02T10:47:21.571Z,43.20
2018-09-02T10:49:53.927Z,43.50
2018-09-02T10:52:26.255Z,42.90
2018-09-02T10:54:58.723Z,43.10
2018-09-02T10:57:30.727Z,43.20
2018-09-02T11:00:02.881Z,43.20
2018-09-02T11:02:35.325Z,43.30
2018-09-02T11:05:08.287Z,43.60
2018-09-02T11:07:40.697Z,43.50
2018-09-02T11:10:13.026Z,43.50
2018-09-02T11:12:45.352Z,43.40
2018-09-02T11:15:18.038Z,42.90
2018-09-02T11:17:50.867Z,43.30
2018-09-02T11:20:23.230Z,43.10
2018-09-02T11:22:55.810Z,43.00
2018-09-02T11:25:28.132Z,42.80
2018-09-02T11:28:00.920Z,42.70
2018-09-02T11:30:33.083Z,43.20
2018-09-02T11:33:05.798Z,43.10
2018-09-02T11:35:38.308Z,43.40
2018-09-02T11:38:10.357Z,44.00
2018-09-02T11:40:42.879Z,43.30
2018-09-02T11:43:15.314Z,43.70
2018-09-02T11:45:48.240Z,44.40
2018-09-02T11:48:20.888Z,44.50
2018-09-02T11:50:53.290Z,44.50
2018-09-02T11:53:25.476Z,44.80
2018-09-02T11:55:58.048Z,45.00
2018-09-02T11:58:30.199Z,44.50
2018-09-02T12:01:02.855Z,45.60
2018-09-02T12:10:24.053Z,45.80
2018-09-02T12:12:56.480Z,46.20
2018-09-02T12:15:28.918Z,46.90
2018-09-02T12:18:02.161Z,46.90
2018-09-02T12:20:34.885Z,47.20
2018-09-02T12:23:07.452Z,48.00
2018-09-02T12:25:39.594Z,48.30
2018-09-02T12:28:11.934Z,49.40
2018-09-02T12:30:44.655Z,49.40
2018-09-02T12:33:17.074Z,49.70
2018-09-02T12:35:49.360Z,50.40
2018-09-02T12:38:21.837Z,50.80
2018-09-02T12:40:53.920Z,51.40
2018-09-02T12:43:26.286Z,50.50
2018-09-02T12:45:58.885Z,50.40
2018-09-02T12:48:31.444Z,50.80
2018-09-02T12:51:04.020Z,50.70
2018-09-02T12:53:36.373Z,51.30
2018-09-02T12:56:08.583Z,51.40
2018-09-02T12:58:41.113Z,51.60
2018-09-02T13:01:13.522Z,51.50
2018-09-02T13:03:45.908Z,52.60
2018-09-02T13:06:18.086Z,52.50
2018-09-02T13:08:50.614Z,52.70
2018-09-02T13:11:23.089Z,53.80
2018-09-02T13:13:55.427Z,54.20
2018-09-02T13:16:27.585Z,54.20
2018-09-02T13:19:00.148Z,54.60
2018-09-02T13:21:32.560Z,54.30
2018-09-02T13:24:04.916Z,54.40
2018-09-02T13:26:37.507Z,54.90
2018-09-02T13:29:09.899Z,55.30
2018-09-02T13:31:42.356Z,54.80
2018-09-02T13:34:14.540Z,55.40
2018-09-02T13:36:47.516Z,55.60
2018-09-02T13:39:19.959Z,55.20
2018-09-02T13:41:52.255Z,55.90
2018-09-02T13:44:24.855Z,55.60
2018-09-02T13:46:57.753Z,56.20
2018-09-02T13:49:30.898Z,56.20
2018-09-02T13:52:03.249Z,56.80
2018-09-02T13:54:35.516Z,57.20
2018-09-02T13:57:08.027Z,57.50
2018-09-02T13:59:40.216Z,60.00
2018-09-02T14:02:12.587Z,60.20
2018-09-02T14:04:44.861Z,60.20
2018-09-02T14:07:17.224Z,60.50
2018-09-02T14:09:49.770Z,60.20
2018-09-02T14:12:22.367Z,60.20
2018-09-02T14:14:54.929Z,60.30
2018-09-02T14:17:27.277Z,60.50
2018-09-02T14:19:59.800Z,60.60
2018-09-02T14:22:32.486Z,60.60
2018-09-02T14:25:05.075Z,60.60
2018-09-02T14:27:37.228Z,60.30
2018-09-02T14:30:10.062Z,60.10
2018-09-02T14:32:42.806Z,59.70
2018-09-02T14:35:14.923Z,59.40
2018-09-02T14:37:47.545Z,59.70
2018-09-02T14:40:19.885Z,59.00
2018-09-02T14:42:52.075Z,58.20
2018-09-02T14:45:24.636Z,57.80
2018-09-02T14:47:57.034Z,57.70
2018-09-02T14:50:29.595Z,57.20
2018-09-02T14:53:02.766Z,56.00
2018-09-02T14:55:34.955Z,55.60
2018-09-02T14:58:07.541Z,55.30
2018-09-02T15:00:40.355Z,54.20
2018-09-02T15:03:12.909Z,53.00
2018-09-02T15:05:45.418Z,51.40
2018-09-02T15:08:18.020Z,51.50
2018-09-02T15:10:50.955Z,49.80
2018-09-02T15:13:23.088Z,49.10
2018-09-02T15:15:55.458Z,47.20
2018-09-02T15:18:27.864Z,46.90
2018-09-02T15:21:00.199Z,46.50
2018-09-02T15:23:32.943Z,45.00
2018-09-02T15:26:05.403Z,45.30
2018-09-02T15:28:39.605Z,42.70
2018-09-02T15:31:11.771Z,42.40
2018-09-02T15:33:43.868Z,42.60
2018-09-02T15:36:16.099Z,42.30
2018-09-02T15:38:48.246Z,41.70
2018-09-02T15:41:21.249Z,41.10
2018-09-02T15:43:53.779Z,38.40
2018-09-02T15:46:26.063Z,39.40
2018-09-02T15:48:58.795Z,37.50
2018-09-02T15:51:31.515Z,34.60
2018-09-02T15:54:04.024Z,30.50
2018-09-02T15:56:36.531Z,24.30
2018-09-02T15:59:08.782Z,21.80
2018-09-02T16:01:41.323Z,17.80
2018-09-02T16:04:13.651Z,14.20
2018-09-02T16:06:45.853Z,11.20
2018-09-02T16:09:18.021Z,7.90
2018-09-02T16:11:50.395Z,8.00
2018-09-02T16:14:23.119Z,6.50
2018-09-02T16:16:55.561Z,5.00
2018-09-02T16:19:27.865Z,4.00
2018-09-02T16:22:00.244Z,1.00
2018-09-02T16:24:32.870Z,1.00
2018-09-02T16:27:05.460Z,1.00
2018-09-02T16:29:37.733Z,1.00
2018-09-02T16:32:10.297Z,1.00
2018-09-02T16:34:42.626Z,1.00
2018-09-02T16:37:15.338Z,1.00
2018-09-02T16:39:47.821Z,1.00
2018-09-02T16:42:20.378Z,1.10
2018-09-02T16:44:53.144Z,4.10
2018-09-02T16:47:25.742Z,5.50
2018-09-02T16:49:58.091Z,8.40
2018-09-02T16:52:30.528Z,8.80
2018-09-02T16:55:02.644Z,10.20
2018-09-02T16:57:34.737Z,11.30
2018-09-02T17:00:07.507Z,13.70
2018-09-02T17:02:39.927Z,13.30
2018-09-02T17:05:18.063Z,14.20
2018-09-02T17:07:51.091Z,14.60
2018-09-02T17:10:23.551Z,15.80
2018-09-02T17:12:56.191Z,16.40
2018-09-02T17:15:28.786Z,16.60
2018-09-02T17:18:01.754Z,17.20
2018-09-02T17:20:38.683Z,17.50
2018-09-02T17:23:14.459Z,17.00
2018-09-02T17:25:47.157Z,17.80
2018-09-02T17:28:19.662Z,18.20
2018-09-02T17:30:52.048Z,18.60
2018-09-02T17:33:24.426Z,18.50
2018-09-02T17:35:57.254Z,18.70
2018-09-02T17:38:29.397Z,19.20
2018-09-02T17:41:01.928Z,19.10
2018-09-02T17:43:35.556Z,18.00
2018-09-02T17:46:07.893Z,18.70
2018-09-02T17:48:40.074Z,17.60
2018-09-02T17:51:13.257Z,18.60
2018-09-02T17:53:46.862Z,18.80
2018-09-02T17:56:19.227Z,18.90
2018-09-02T17:58:51.770Z,18.70
2018-09-02T18:01:24.547Z,17.80
2018-09-02T18:03:56.977Z,18.60
2018-09-02T18:06:29.684Z,19.20
2018-09-02T18:09:02.284Z,19.50
2018-09-02T18:11:35.282Z,19.50
2018-09-02T18:14:07.825Z,19.40
2018-09-02T18:16:40.909Z,18.60
2018-09-02T18:19:13.411Z,18.80
2018-09-02T18:21:46.004Z,19.10
2018-09-02T18:24:18.387Z,18.50
2018-09-02T18:26:50.939Z,18.90
2018-09-02T18:29:23.623Z,18.40
2018-09-02T18:31:56.011Z,17.90
2018-09-02T18:34:28.247Z,17.80
2018-09-02T18:37:02.799Z,17.10
2018-09-02T18:39:35.208Z,18.70
2018-09-02T18:42:07.746Z,17.70
2018-09-02T18:44:39.794Z,18.20
2018-09-02T18:47:12.508Z,17.80
2018-09-02T18:49:45.722Z,17.20
2018-09-02T18:52:18.215Z,18.00
2018-09-02T18:54:51.133Z,17.70
2018-09-02T18:57:23.311Z,17.80
2018-09-02T18:59:55.639Z,17.30
2018-09-02T19:02:27.873Z,16.30
2018-09-02T19:04:59.855Z,16.30
2018-09-02T19:07:31.742Z,17.20
2018-09-02T19:10:04.339Z,16.90
2018-09-02T19:12:36.781Z,16.40
2018-09-02T19:15:09.015Z,16.40
2018-09-02T19:17:40.896Z,17.20
2018-09-02T19:20:13.279Z,15.40
2018-09-02T19:22:45.312Z,15.00
2018-09-02T19:25:18.326Z,16.00
2018-09-02T19:27:52.003Z,15.20
2018-09-02T19:30:23.950Z,15.20
2018-09-02T19:32:55.945Z,15.40
2018-09-02T19:35:28.310Z,14.30
2018-09-02T19:38:00.282Z,13.80
2018-09-02T19:40:32.722Z,12.60
2018-09-02T19:43:04.788Z,11.70
2018-09-02T19:45:36.928Z,11.70
2018-09-02T19:48:08.929Z,11.20
2018-09-02T19:50:40.886Z,10.30
2018-09-02T19:53:12.883Z,9.70
2018-09-02T19:55:44.759Z,9.90
2018-09-02T19:58:16.798Z,9.80
2018-09-02T20:00:48.970Z,9.90
2018-09-02T20:03:20.916Z,9.60
2018-09-02T20:05:53.368Z,9.40
2018-09-02T20:08:25.366Z,9.80
2018-09-02T20:10:57.303Z,10.00
2018-09-02T20:13:29.300Z,9.00
2018-09-02T20:16:01.173Z,9.10
2018-09-02T20:18:33.606Z,9.30
2018-09-02T20:21:05.737Z,9.50
2018-09-02T20:23:37.945Z,9.70
2018-09-02T20:26:09.929Z,9.10
2018-09-02T20:28:42.684Z,9.10
2018-09-02T20:31:15.079Z,9.80
2018-09-02T20:33:47.211Z,8.60
2018-09-02T20:36:19.614Z,7.90
2018-09-02T20:38:51.779Z,9.90
2018-09-02T20:41:23.927Z,7.50
2018-09-02T20:43:56.398Z,6.70
2018-09-02T20:46:28.474Z,6.80
2018-09-02T20:49:00.632Z,6.60
2018-09-02T20:51:32.604Z,5.90
2018-09-02T20:54:05.275Z,4.90
2018-09-02T20:56:37.123Z,5.40
2018-09-02T20:59:09.511Z,5.50
2018-09-02T21:01:41.862Z,3.80
2018-09-02T21:04:14.814Z,4.20
2018-09-02T21:06:46.866Z,3.90
2018-09-02T21:09:19.538Z,3.90
2018-09-02T21:11:51.957Z,3.40
2018-09-02T21:14:24.164Z,2.40
2018-09-02T21:16:56.556Z,2.40
2018-09-02T21:19:28.725Z,1.50
2018-09-02T21:22:01.188Z,1.00
2018-09-02T21:24:33.783Z,1.00
2018-09-02T21:27:06.371Z,1.00
2018-09-02T21:29:38.304Z,1.00
2018-09-02T21:32:10.209Z,1.00
2018-09-02T21:34:42.861Z,1.00
2018-09-02T21:37:15.584Z,1.00
2018-09-02T21:39:48.300Z,1.00
2018-09-02T21:42:20.776Z,1.00
2018-09-02T21:44:53.214Z,1.00
2018-09-02T21:47:25.020Z,1.00
2018-09-02T21:49:57.549Z,1.00
2018-09-02T21:52:29.746Z,1.00
2018-09-02T21:55:01.972Z,1.00
2018-09-02T21:57:34.424Z,1.00
2018-09-02T22:00:08.495Z,1.00
2018-09-02T22:02:41.091Z,1.00
2018-09-02T22:05:14.405Z,1.00
2018-09-02T22:07:46.595Z,1.00
2018-09-02T22:10:18.835Z,1.00
2018-09-02T22:12:50.837Z,1.00
2018-09-02T22:15:23.250Z,1.00
2018-09-02T22:17:55.469Z,1.00
2018-09-02T22:20:27.728Z,1.00
2018-09-02T22:22:59.856Z,1.00
2018-09-02T22:25:32.037Z,1.00
2018-09-02T22:28:05.176Z,1.00
2018-09-02T22:30:37.677Z,1.00
2018-09-02T22:33:10.222Z,1.00
2018-09-02T22:35:42.419Z,1.00
2018-09-02T22:38:15.842Z,1.00
2018-09-02T22:40:48.395Z,1.00
2018-09-02T22:43:20.235Z,1.00
2018-09-02T22:45:52.925Z,1.00
2018-09-02T22:48:25.782Z,1.00
2018-09-02T22:50:57.903Z,1.00
2018-09-02T22:53:30.252Z,1.00
2018-09-02T22:56:02.644Z,1.00
2018-09-02T22:58:34.988Z,1.00
2018-09-02T23:01:07.540Z,1.00
2018-09-02T23:03:40.028Z,1.00
2018-09-02T23:06:12.283Z,1.00
2018-09-02T23:08:44.371Z,1.00
2018-09-02T23:11:16.523Z,1.00
2018-09-02T23:13:48.756Z,1.00
2018-09-02T23:16:20.580Z,1.00
2018-09-02T23:18:52.900Z,1.00
2018-09-02T23:21:24.957Z,1.00
2018-09-02T23:23:57.820Z,1.00
2018-09-02T23:26:30.264Z,1.00
2018-09-02T23:29:03.186Z,1.00
2018-09-02T23:31:35.411Z,1.00
2018-09-02T23:34:07.579Z,1.00
2018-09-02T23:36:39.727Z,1.00
2018-09-02T23:39:13.441Z,1.00
2018-09-02T23:41:45.736Z,1.00
2018-09-02T23:44:17.866Z,1.00
2018-09-02T23:46:51.181Z,1.00
2018-09-02T23:49:23.678Z,1.00
2018-09-02T23:51:57.300Z,1.00
2018-09-02T23:54:30.013Z,1.00
2018-09-02T23:57:02.200Z,1.00
2018-09-02T23:59:34.819Z,1.00
